createdAt,value
2024-05-09T00:01:34.412Z,41.60
2024-05-09T00:04:05.042Z,46.95
2024-05-09T00:06:35.189Z,43.65
2024-05-09T00:09:08.586Z,41.35
2024-05-09T00:11:38.809Z,43.38
2024-05-09T00:14:09.076Z,44.47
2024-05-09T00:16:39.332Z,42.50
2024-05-09T00:19:09.830Z,44.80
2024-05-09T00:21:44.649Z,42.58
2024-05-09T00:24:17.417Z,47.50
2024-05-09T00:26:47.894Z,46.28
2024-05-09T00:29:18.312Z,51.30
2024-05-09T00:31:48.928Z,47.20
2024-05-09T00:34:19.606Z,50.85
2024-05-09T00:36:49.820Z,53.42
2024-05-09T00:39:22.927Z,49.17
2024-05-09T00:41:53.588Z,43.90
2024-05-09T00:44:23.963Z,50.78
2024-05-09T00:46:56.323Z,45.00
2024-05-09T00:49:28.049Z,44.70
2024-05-09T00:52:00.149Z,43.73
2024-05-09T00:54:33.441Z,51.75
2024-05-09T00:57:05.807Z,46.13
2024-05-09T00:59:37.563Z,45.47
2024-05-09T01:02:09.616Z,47.13
2024-05-09T01:04:39.972Z,50.90
2024-05-09T01:07:10.799Z,48.60
2024-05-09T01:09:43.656Z,48.50
2024-05-09T01:12:14.071Z,49.60
2024-05-09T01:14:44.582Z,46.08
2024-05-09T01:17:15.418Z,42.90
2024-05-09T01:19:46.769Z,45.58
2024-05-09T01:22:16.889Z,41.55
2024-05-09T01:24:49.826Z,47.22
2024-05-09T01:27:19.971Z,47.10
2024-05-09T01:29:49.997Z,43.30
2024-05-09T01:32:20.252Z,45.65
2024-05-09T01:34:50.595Z,48.28
2024-05-09T01:37:20.704Z,48.80
2024-05-09T01:39:53.427Z,47.90
2024-05-09T01:42:23.505Z,42.38
2024-05-09T01:44:54.261Z,46.90
2024-05-09T01:47:25.275Z,44.35
2024-05-09T01:49:56.652Z,44.58
2024-05-09T01:52:26.794Z,50.92
2024-05-09T01:55:01.988Z,43.15
2024-05-09T01:57:33.567Z,45.25
2024-05-09T02:00:07.632Z,42.85
2024-05-09T02:02:40.813Z,51.67
2024-05-09T02:05:11.165Z,53.63
2024-05-09T02:07:41.392Z,52.08
2024-05-09T02:10:20.438Z,48.88
2024-05-09T02:12:56.428Z,49.78
2024-05-09T02:15:26.596Z,50.40
2024-05-09T02:17:57.024Z,53.40
2024-05-09T02:20:33.435Z,53.00
2024-05-09T02:23:07.235Z,48.28
2024-05-09T02:25:40.429Z,52.67
2024-05-09T02:28:10.796Z,53.22
2024-05-09T02:30:42.286Z,48.95
2024-05-09T02:33:14.469Z,50.40
2024-05-09T02:35:45.166Z,56.85
2024-05-09T02:38:13.232Z,51.70
2024-05-09T02:40:46.512Z,49.00
2024-05-09T02:43:14.196Z,48.95
2024-05-09T02:45:44.268Z,46.63
2024-05-09T02:48:13.237Z,42.47
2024-05-09T02:50:45.113Z,54.83
2024-05-09T02:53:13.654Z,55.80
2024-05-09T02:55:47.090Z,51.53
2024-05-09T02:58:14.631Z,57.97
2024-05-09T03:00:44.818Z,54.13
2024-05-09T03:03:14.669Z,59.55
2024-05-09T03:05:46.321Z,54.30
2024-05-09T03:08:14.368Z,61.15
2024-05-09T03:10:47.326Z,62.55
2024-05-09T03:13:16.134Z,60.15
2024-05-09T03:15:47.217Z,64.22
2024-05-09T03:18:15.845Z,54.60
2024-05-09T03:20:46.371Z,61.00
2024-05-09T03:23:14.130Z,56.90
2024-05-09T03:25:46.970Z,62.47
2024-05-09T03:28:14.473Z,59.65
2024-05-09T03:30:44.659Z,56.78
2024-05-09T03:33:18.601Z,54.83
2024-05-09T03:35:47.802Z,54.95
2024-05-09T03:38:18.256Z,59.75
2024-05-09T03:40:52.507Z,53.15
2024-05-09T03:43:22.888Z,59.92
2024-05-09T03:45:50.623Z,64.82
2024-05-09T03:48:21.248Z,58.00
2024-05-09T03:50:49.169Z,54.70
2024-05-09T03:53:19.414Z,52.88
2024-05-09T03:55:50.540Z,64.50
2024-05-09T03:58:20.684Z,57.45
2024-05-09T04:00:48.201Z,49.25
2024-05-09T04:03:19.119Z,63.38
2024-05-09T04:05:47.038Z,55.72
2024-05-09T04:08:17.609Z,64.53
2024-05-09T04:10:45.668Z,53.28
2024-05-09T04:13:18.429Z,60.08
2024-05-09T04:18:15.958Z,61.10
2024-05-09T04:20:43.504Z,58.63
2024-05-09T04:23:15.617Z,61.75
2024-05-09T04:25:45.377Z,65.57
2024-05-09T04:28:18.807Z,65.97
2024-05-09T04:30:46.282Z,62.55
2024-05-09T04:33:19.911Z,58.55
2024-05-09T04:35:49.407Z,56.15
2024-05-09T04:38:19.531Z,62.78
2024-05-09T04:40:47.136Z,68.25
2024-05-09T04:43:21.520Z,74.03
2024-05-09T04:45:50.810Z,62.88
2024-05-09T04:48:21.081Z,63.22
2024-05-09T04:50:48.702Z,60.55
2024-05-09T04:53:19.729Z,68.20
2024-05-09T04:55:47.397Z,61.75
2024-05-09T04:58:20.184Z,63.35
2024-05-09T05:00:47.719Z,63.00
2024-05-09T05:03:18.133Z,73.25
2024-05-09T05:05:46.370Z,68.65
2024-05-09T05:08:18.625Z,71.15
2024-05-09T05:10:48.230Z,62.50
2024-05-09T05:13:24.930Z,61.08
2024-05-09T05:15:56.766Z,70.93
2024-05-09T05:20:57.322Z,62.20
2024-05-09T05:23:28.252Z,67.45
2024-05-09T05:25:55.981Z,63.58
2024-05-09T05:28:29.054Z,57.38
2024-05-09T05:30:56.476Z,58.97
2024-05-09T05:33:26.960Z,58.47
2024-05-09T05:35:54.631Z,55.17
2024-05-09T05:38:27.983Z,55.92
2024-05-09T05:40:56.238Z,49.90
2024-05-09T05:43:29.611Z,52.47
2024-05-09T05:45:57.046Z,44.00
2024-05-09T05:48:27.320Z,45.83
2024-05-09T05:50:54.926Z,41.10
2024-05-09T05:53:25.095Z,38.50
2024-05-09T05:55:52.651Z,35.80
2024-05-09T05:58:22.976Z,36.58
2024-05-09T06:00:53.738Z,41.97
2024-05-09T06:03:23.934Z,35.33
2024-05-09T06:05:51.527Z,39.25
2024-05-09T06:08:21.947Z,38.22
2024-05-09T06:10:49.756Z,48.50
2024-05-09T06:13:20.524Z,44.75
2024-05-09T06:15:48.082Z,47.78
2024-05-09T06:18:22.115Z,50.90
2024-05-09T06:20:49.745Z,55.80
2024-05-09T06:23:19.965Z,63.03
2024-05-09T06:25:47.491Z,60.72
2024-05-09T06:28:17.646Z,60.75
2024-05-09T06:30:45.075Z,64.78
2024-05-09T06:33:16.678Z,53.97
2024-05-09T06:35:47.141Z,68.20
2024-05-09T06:38:17.394Z,64.65
2024-05-09T06:40:45.069Z,59.25
2024-05-09T06:43:17.888Z,54.38
2024-05-09T06:45:47.856Z,67.78
2024-05-09T06:48:21.028Z,66.63
2024-05-09T06:50:51.780Z,56.85
2024-05-09T06:53:25.170Z,67.82
2024-05-09T06:55:52.913Z,67.28
2024-05-09T06:58:23.103Z,62.22
2024-05-09T07:00:50.569Z,62.35
2024-05-09T07:03:20.922Z,62.58
2024-05-09T07:05:51.161Z,67.75
2024-05-09T07:08:21.603Z,61.72
2024-05-09T07:10:49.933Z,61.30
2024-05-09T07:13:20.499Z,58.85
2024-05-09T07:15:48.333Z,69.22
2024-05-09T07:18:20.388Z,72.05
2024-05-09T07:20:51.220Z,63.22
2024-05-09T07:23:22.177Z,64.20
2024-05-09T07:25:50.451Z,62.38
2024-05-09T07:28:22.136Z,69.13
2024-05-09T07:30:49.650Z,60.17
2024-05-09T07:33:21.773Z,60.75
2024-05-09T07:35:53.500Z,67.22
2024-05-09T07:38:24.160Z,63.85
2024-05-09T07:40:51.707Z,64.78
2024-05-09T07:43:21.804Z,60.88
2024-05-09T07:45:53.639Z,62.63
2024-05-09T07:50:00.173Z,63.67
2024-05-09T07:53:56.087Z,64.95
2024-05-09T07:56:26.532Z,58.58
2024-05-09T07:58:57.107Z,61.28
2024-05-09T08:01:27.039Z,58.05
2024-05-09T08:03:57.411Z,64.75
2024-05-09T08:06:27.855Z,64.55
2024-05-09T08:09:02.652Z,62.80
2024-05-09T08:11:35.354Z,61.13
2024-05-09T08:14:02.874Z,55.90
2024-05-09T08:16:33.023Z,62.33
2024-05-09T08:19:01.297Z,58.90
2024-05-09T08:21:34.404Z,60.83
2024-05-09T08:24:02.002Z,62.15
2024-05-09T08:26:32.331Z,55.88
2024-05-09T08:28:59.822Z,57.75
2024-05-09T08:31:30.121Z,56.05
2024-05-09T08:33:58.063Z,55.70
2024-05-09T08:36:29.745Z,57.83
2024-05-09T08:38:59.910Z,55.90
2024-05-09T08:41:32.870Z,62.88
2024-05-09T08:44:00.715Z,56.00
2024-05-09T08:46:33.301Z,58.83
2024-05-09T08:49:03.105Z,56.92
2024-05-09T08:51:33.248Z,53.15
2024-05-09T08:54:03.556Z,54.55
2024-05-09T08:56:38.205Z,54.00
2024-05-09T08:59:09.854Z,53.10
2024-05-09T09:01:42.500Z,53.33
2024-05-09T09:04:11.867Z,49.35
2024-05-09T09:06:42.443Z,53.38
2024-05-09T09:09:12.839Z,51.20
2024-05-09T09:11:43.293Z,50.33
2024-05-09T09:14:10.826Z,49.45
2024-05-09T09:16:40.897Z,45.05
2024-05-09T09:19:08.507Z,42.97
2024-05-09T09:21:39.274Z,41.83
2024-05-09T09:24:09.860Z,42.15
2024-05-09T09:26:43.547Z,36.23
2024-05-09T09:29:10.990Z,41.58
2024-05-09T09:31:42.102Z,41.50
2024-05-09T09:34:09.806Z,39.35
2024-05-09T09:36:43.662Z,37.72
2024-05-09T09:39:13.990Z,37.97
2024-05-09T09:41:49.538Z,26.40
2024-05-09T09:44:19.451Z,40.88
2024-05-09T09:46:50.301Z,43.78
2024-05-09T09:49:18.500Z,45.55
2024-05-09T09:51:50.231Z,35.85
2024-05-09T09:54:18.561Z,25.80
2024-05-09T09:56:51.600Z,34.17
2024-05-09T09:59:19.059Z,38.30
2024-05-09T10:01:49.566Z,31.05
2024-05-09T10:04:18.997Z,23.52
2024-05-09T10:06:53.837Z,22.25
2024-05-09T10:09:22.661Z,22.80
2024-05-09T10:12:00.155Z,13.48
2024-05-09T10:14:30.935Z,21.55
2024-05-09T10:17:08.709Z,19.58
2024-05-09T10:19:36.464Z,21.65
2024-05-09T10:22:08.890Z,14.05
2024-05-09T10:24:48.305Z,19.88
2024-05-09T10:27:29.649Z,25.13
2024-05-09T10:29:58.901Z,26.63
2024-05-09T10:32:32.737Z,14.23
2024-05-09T10:35:01.010Z,16.67
2024-05-09T10:37:31.478Z,21.83
2024-05-09T10:39:59.930Z,19.70
2024-05-09T10:42:33.014Z,16.80
2024-05-09T10:45:02.181Z,17.17
2024-05-09T10:47:33.075Z,17.85
2024-05-09T10:50:00.852Z,21.58
2024-05-09T10:52:30.903Z,23.80
2024-05-09T10:54:59.921Z,21.52
2024-05-09T10:57:43.237Z,26.92
2024-05-09T11:03:00.229Z,22.88
2024-05-09T11:05:27.831Z,21.55
2024-05-09T11:07:58.366Z,22.75
2024-05-09T11:10:33.385Z,20.73
2024-05-09T11:13:07.459Z,22.00
2024-05-09T11:15:39.520Z,20.23
2024-05-09T11:18:09.952Z,18.90
2024-05-09T11:20:38.311Z,20.75
2024-05-09T11:23:09.169Z,16.30
2024-05-09T11:25:36.923Z,17.13
2024-05-09T11:28:11.146Z,19.55
2024-05-09T11:30:38.722Z,10.90
2024-05-09T11:33:09.177Z,15.18
2024-05-09T11:35:36.684Z,15.30
2024-05-09T11:38:07.382Z,20.17
2024-05-09T11:40:37.169Z,10.95
2024-05-09T11:43:10.163Z,22.52
2024-05-09T11:45:37.916Z,15.68
2024-05-09T11:48:08.924Z,17.70
2024-05-09T11:50:36.880Z,21.60
2024-05-09T11:53:07.403Z,19.50
2024-05-09T11:55:36.496Z,16.00
2024-05-09T11:58:09.833Z,25.60
2024-05-09T12:00:38.104Z,15.60
2024-05-09T12:03:09.108Z,12.77
2024-05-09T12:05:36.704Z,14.70
2024-05-09T12:08:07.711Z,16.83
2024-05-09T12:10:36.636Z,10.82
2024-05-09T12:13:10.096Z,12.73
2024-05-09T12:15:38.983Z,13.75
2024-05-09T12:18:10.123Z,12.55
2024-05-09T12:20:39.740Z,10.00
2024-05-09T12:23:11.257Z,16.02
2024-05-09T12:25:39.975Z,13.45
2024-05-09T12:28:13.742Z,20.42
2024-05-09T12:30:41.769Z,13.85
2024-05-09T12:33:13.845Z,13.55
2024-05-09T12:38:16.897Z,12.32
2024-05-09T12:40:44.463Z,13.85
2024-05-09T12:43:17.725Z,13.90
2024-05-09T12:45:45.606Z,12.27
2024-05-09T12:48:15.877Z,11.68
2024-05-09T12:50:43.894Z,12.55
2024-05-09T12:53:14.453Z,15.60
2024-05-09T12:55:48.765Z,12.20
2024-05-09T12:58:29.642Z,11.65
2024-05-09T13:00:57.344Z,19.30
2024-05-09T13:03:27.525Z,13.32
2024-05-09T13:05:55.391Z,13.15
2024-05-09T13:08:25.504Z,9.35
2024-05-09T13:10:53.122Z,9.95
2024-05-09T13:13:23.434Z,9.60
2024-05-09T13:15:53.686Z,12.25
2024-05-09T13:18:23.924Z,11.38
2024-05-09T13:20:51.454Z,11.43
2024-05-09T13:23:21.523Z,12.00
2024-05-09T13:25:48.987Z,11.38
2024-05-09T13:28:19.470Z,12.15
2024-05-09T13:30:47.191Z,12.60
2024-05-09T13:33:20.298Z,9.77
2024-05-09T13:35:50.522Z,13.68
2024-05-09T13:38:22.397Z,13.43
2024-05-09T13:40:50.703Z,12.90
2024-05-09T13:43:22.046Z,11.90
2024-05-09T13:45:50.084Z,13.33
2024-05-09T13:48:23.454Z,14.50
2024-05-09T13:50:51.296Z,15.77
2024-05-09T13:53:21.658Z,15.27
2024-05-09T13:55:49.174Z,15.23
2024-05-09T13:58:19.786Z,11.13
2024-05-09T14:00:49.040Z,12.60
2024-05-09T14:03:27.020Z,11.35
2024-05-09T14:05:54.678Z,8.88
2024-05-09T14:08:25.350Z,13.70
2024-05-09T14:10:53.733Z,16.27
2024-05-09T14:13:24.065Z,20.02
2024-05-09T14:15:51.876Z,11.05
2024-05-09T14:18:24.789Z,12.73
2024-05-09T14:20:52.655Z,15.02
2024-05-09T14:23:22.999Z,11.48
2024-05-09T14:25:53.067Z,15.18
2024-05-09T14:28:26.159Z,17.40
2024-05-09T14:30:56.443Z,15.07
2024-05-09T14:33:30.702Z,14.00
2024-05-09T14:35:58.699Z,20.63
2024-05-09T14:38:32.880Z,14.45
2024-05-09T14:41:00.467Z,16.17
2024-05-09T14:43:31.288Z,13.60
2024-05-09T14:45:59.294Z,14.95
2024-05-09T14:48:32.325Z,16.00
2024-05-09T14:50:59.896Z,16.67
2024-05-09T14:53:29.907Z,15.15
2024-05-09T14:55:57.759Z,19.67
2024-05-09T14:58:28.062Z,14.07
2024-05-09T15:00:55.704Z,14.90
2024-05-09T15:03:25.931Z,15.68
2024-05-09T15:05:56.243Z,15.50
2024-05-09T15:08:26.599Z,14.48
2024-05-09T15:10:54.221Z,14.05
2024-05-09T15:13:24.958Z,13.20
2024-05-09T15:15:52.803Z,16.38
2024-05-09T15:18:23.230Z,17.08
2024-05-09T15:20:50.759Z,17.23
2024-05-09T15:23:23.522Z,16.98
2024-05-09T15:25:50.957Z,13.00
2024-05-09T15:28:21.341Z,18.75
2024-05-09T15:30:49.211Z,16.23
2024-05-09T15:33:19.527Z,15.95
2024-05-09T15:35:47.732Z,18.75
2024-05-09T15:38:18.807Z,16.58
2024-05-09T15:40:49.251Z,15.90
2024-05-09T15:43:19.482Z,18.65
2024-05-09T15:45:47.064Z,14.70
2024-05-09T15:48:18.058Z,15.75
2024-05-09T15:50:45.842Z,13.50
2024-05-09T15:53:16.480Z,22.52
2024-05-09T15:55:43.908Z,13.75
2024-05-09T15:58:17.609Z,13.23
2024-05-09T16:00:47.022Z,16.50
2024-05-09T16:03:21.262Z,15.07
2024-05-09T16:05:51.380Z,23.30
2024-05-09T16:08:21.697Z,14.30
2024-05-09T16:10:49.545Z,14.50
2024-05-09T16:13:22.890Z,13.60
2024-05-09T16:15:50.972Z,12.48
2024-05-09T16:18:21.792Z,16.00
2024-05-09T16:20:50.332Z,12.77
2024-05-09T16:23:20.866Z,12.93
2024-05-09T16:25:48.676Z,13.30
2024-05-09T16:28:23.123Z,16.65
2024-05-09T16:30:52.115Z,11.32
2024-05-09T16:33:23.726Z,12.02
2024-05-09T16:35:51.763Z,13.05
2024-05-09T16:38:25.643Z,10.73
2024-05-09T16:40:53.165Z,13.13
2024-05-09T16:43:26.092Z,12.70
2024-05-09T16:45:53.969Z,15.63
2024-05-09T16:48:24.236Z,10.82
2024-05-09T16:50:51.784Z,19.52
2024-05-09T16:53:22.524Z,19.50
2024-05-09T16:55:50.100Z,13.85
2024-05-09T16:58:21.304Z,13.00
2024-05-09T17:00:51.694Z,14.43
2024-05-09T17:03:23.656Z,11.48
2024-05-09T17:05:51.416Z,14.30
2024-05-09T17:08:22.390Z,17.63
2024-05-09T17:10:50.235Z,13.77
2024-05-09T17:13:21.303Z,12.60
2024-05-09T17:15:54.227Z,14.95
2024-05-09T17:18:24.570Z,11.38
2024-05-09T17:20:55.291Z,16.38
2024-05-09T17:23:22.902Z,12.52
2024-05-09T17:25:53.171Z,12.45
2024-05-09T17:28:21.034Z,12.05
2024-05-09T17:30:53.976Z,9.98
2024-05-09T17:33:21.614Z,12.48
2024-05-09T17:35:52.785Z,13.50
2024-05-09T17:38:22.795Z,15.10
2024-05-09T17:40:53.582Z,15.25
2024-05-09T17:43:21.485Z,14.82
2024-05-09T17:45:54.434Z,11.75
2024-05-09T17:48:22.521Z,11.80
2024-05-09T17:50:53.268Z,16.55
2024-05-09T17:53:21.497Z,21.33
2024-05-09T17:55:53.787Z,16.33
2024-05-09T17:58:21.678Z,17.02
2024-05-09T18:00:54.712Z,12.95
2024-05-09T18:03:23.280Z,13.35
2024-05-09T18:05:53.850Z,16.30
2024-05-09T18:08:21.439Z,15.18
2024-05-09T18:10:53.375Z,15.45
2024-05-09T18:13:22.278Z,18.33
2024-05-09T18:15:55.232Z,16.55
2024-05-09T18:18:23.210Z,17.17
2024-05-09T18:20:53.430Z,18.95
2024-05-09T18:23:21.038Z,16.98
2024-05-09T18:25:54.512Z,17.02
2024-05-09T18:28:22.854Z,17.40
2024-05-09T18:30:55.776Z,16.67
2024-05-09T18:33:24.486Z,18.77
2024-05-09T18:35:55.509Z,16.30
2024-05-09T18:38:27.117Z,19.08
2024-05-09T18:40:57.688Z,23.38
2024-05-09T18:43:31.151Z,24.20
2024-05-09T18:46:08.885Z,18.63
2024-05-09T18:48:36.664Z,19.10
2024-05-09T18:51:07.808Z,17.92
2024-05-09T18:53:35.309Z,20.38
2024-05-09T18:56:05.486Z,18.92
2024-05-09T18:58:33.547Z,20.08
2024-05-09T19:01:04.465Z,21.65
2024-05-09T19:03:35.413Z,17.75
2024-05-09T19:06:06.220Z,17.40
2024-05-09T19:08:33.956Z,18.00
2024-05-09T19:11:06.719Z,18.17
2024-05-09T19:13:34.412Z,16.05
2024-05-09T19:16:04.746Z,19.40
2024-05-09T19:18:36.176Z,21.40
2024-05-09T19:21:06.901Z,18.13
2024-05-09T19:23:38.254Z,17.65
2024-05-09T19:26:11.144Z,16.55
2024-05-09T19:28:40.341Z,17.35
2024-05-09T19:31:10.996Z,22.13
2024-05-09T19:33:43.991Z,18.05
2024-05-09T19:36:12.357Z,21.17
2024-05-09T19:38:42.710Z,22.25
2024-05-09T19:41:10.189Z,20.63
2024-05-09T19:43:41.027Z,21.20
2024-05-09T19:46:08.871Z,21.30
2024-05-09T19:48:39.568Z,17.92
2024-05-09T19:51:09.890Z,21.77
2024-05-09T19:53:41.472Z,21.77
2024-05-09T19:56:09.169Z,21.42
2024-05-09T19:58:39.743Z,23.02
2024-05-09T20:01:07.448Z,20.98
2024-05-09T20:03:37.869Z,23.13
2024-05-09T20:06:08.432Z,23.30
2024-05-09T20:08:40.353Z,26.73
2024-05-09T20:11:08.227Z,24.15
2024-05-09T20:13:39.434Z,22.42
2024-05-09T20:16:08.677Z,28.83
2024-05-09T20:18:39.893Z,25.33
2024-05-09T20:21:10.455Z,24.60
2024-05-09T20:23:40.950Z,26.60
2024-05-09T20:26:09.004Z,24.02
2024-05-09T20:28:39.348Z,29.60
2024-05-09T20:31:09.717Z,26.83
2024-05-09T20:33:40.849Z,24.35
2024-05-09T20:36:11.190Z,24.75
2024-05-09T20:38:41.377Z,24.77
2024-05-09T20:41:08.881Z,27.42
2024-05-09T20:43:39.072Z,26.08
2024-05-09T20:46:06.762Z,30.33
2024-05-09T20:48:37.410Z,29.35
2024-05-09T20:51:05.646Z,28.90
2024-05-09T20:53:38.713Z,29.05
2024-05-09T20:56:07.859Z,29.20
2024-05-09T20:58:38.058Z,34.90
2024-05-09T21:01:06.002Z,29.10
2024-05-09T21:06:06.092Z,33.78
2024-05-09T21:08:38.882Z,31.27
2024-05-09T21:11:07.885Z,27.55
2024-05-09T21:13:38.373Z,34.05
2024-05-09T21:16:07.400Z,31.38
2024-05-09T21:18:37.990Z,31.40
2024-05-09T21:21:06.187Z,29.95
2024-05-09T21:23:39.776Z,38.35
2024-05-09T21:26:07.601Z,27.92
2024-05-09T21:28:37.739Z,35.22
2024-05-09T21:31:05.442Z,34.25
2024-05-09T21:33:37.224Z,28.95
2024-05-09T21:36:05.800Z,33.38
2024-05-09T21:38:38.491Z,34.58
2024-05-09T21:41:07.635Z,34.17
2024-05-09T21:43:37.723Z,32.30
2024-05-09T21:46:06.275Z,31.25
2024-05-09T21:48:36.466Z,36.75
2024-05-09T21:51:05.903Z,30.27
2024-05-09T21:53:38.607Z,31.98
2024-05-09T21:56:07.762Z,33.83
2024-05-09T21:58:37.917Z,34.35
2024-05-09T22:01:06.081Z,34.50
2024-05-09T22:03:36.376Z,38.30
2024-05-09T22:06:04.175Z,37.58
2024-05-09T22:08:34.359Z,29.83
2024-05-09T22:11:05.337Z,32.00
2024-05-09T22:13:35.609Z,34.25
2024-05-09T22:16:03.807Z,33.05
2024-05-09T22:18:34.035Z,32.35
2024-05-09T22:21:01.806Z,36.90
2024-05-09T22:23:32.031Z,39.15
2024-05-09T22:25:59.526Z,34.28
2024-05-09T22:28:32.295Z,35.08
2024-05-09T22:31:00.130Z,38.20
2024-05-09T22:33:30.752Z,29.13
2024-05-09T22:35:58.519Z,35.05
2024-05-09T22:38:28.574Z,35.63
2024-05-09T22:40:56.195Z,39.05
2024-05-09T22:43:26.438Z,34.65
2024-05-09T22:45:56.723Z,36.20
2024-05-09T22:48:27.181Z,38.65
2024-05-09T22:50:55.230Z,39.17
2024-05-09T22:53:26.439Z,38.20
2024-05-09T22:55:54.365Z,32.80
2024-05-09T22:58:25.994Z,31.80
2024-05-09T23:00:56.369Z,35.33
2024-05-09T23:03:26.796Z,29.48
2024-05-09T23:05:54.299Z,29.58
2024-05-09T23:08:24.402Z,30.23
2024-05-09T23:10:52.143Z,34.40
2024-05-09T23:13:22.436Z,32.47
2024-05-09T23:15:50.096Z,26.73
2024-05-09T23:18:22.851Z,31.27
2024-05-09T23:20:51.314Z,28.48
2024-05-09T23:23:22.033Z,29.20
2024-05-09T23:25:50.186Z,33.15
2024-05-09T23:28:20.434Z,30.15
2024-05-09T23:30:48.011Z,33.10
2024-05-09T23:33:18.610Z,30.30
2024-05-09T23:35:48.786Z,30.80
2024-05-09T23:38:22.484Z,30.65
2024-05-09T23:40:51.506Z,30.13
2024-05-09T23:43:22.127Z,30.77
2024-05-09T23:45:49.779Z,34.78
2024-05-09T23:48:20.105Z,37.35
2024-05-09T23:50:50.303Z,34.92
2024-05-09T23:53:20.308Z,29.10
2024-05-09T23:55:47.730Z,34.80
2024-05-09T23:58:17.870Z,33.08
